Time;durP1;ratioP1;P1;durP2;ratioP2;P2;SDS_P1;SDS_P2;PMS_P1;PMS_P2;Temp;Humidity;BMP_temperature;BMP_pressure;BME280_temperature;BME280_humidity;BME280_pressure;Samples;Min_cycle;Max_cycle;Signal;HPM_P1;HPM_P2
2024/03/19 00:00:59;;;;;;;6.50;4.15;;;;;;;7.94;72.35;97720.16;1225154;75;2918949;-70
2024/03/19 00:03:32;;;;;;;4.70;3.30;;;;;;;8.16;72.44;97720.00;1224022;75;2918211;-68
2024/03/19 00:06:05;;;;;;;5.30;2.90;;;;;;;8.21;72.38;97722.13;1226260;75;2874284;-69
2024/03/19 00:08:38;;;;;;;4.10;2.60;;;;;;;8.18;72.39;97717.56;1225632;83;2913166;-72
2024/03/19 00:11:11;;;;;;;3.80;2.40;;;;;;;8.19;72.32;97717.13;1224731;83;2917993;-70
2024/03/19 00:13:47;;;;;;;4.55;2.85;;;;;;;8.09;72.16;97723.81;1224233;75;2915375;-68
2024/03/19 00:16:20;;;;;;;3.70;2.80;;;;;;;8.10;72.55;97722.56;1222574;75;3054493;-68
2024/03/19 00:18:53;;;;;;;3.50;2.60;;;;;;;8.18;72.43;97725.75;1225261;75;2917973;-69
2024/03/19 00:21:41;;;;;;;4.35;3.05;;;;;;;7.95;72.16;97724.44;1226076;75;2909232;-70
2024/03/19 00:24:13;;;;;;;5.45;3.15;;;;;;;7.93;71.15;97722.16;1225426;75;2913825;-69
2024/03/19 00:26:46;;;;;;;4.85;3.15;;;;;;;7.91;70.86;97724.56;1223836;75;2951792;-70
2024/03/19 00:29:22;;;;;;;4.25;2.70;;;;;;;7.96;69.70;97728.66;1225388;75;2926091;-70
2024/03/19 00:31:54;;;;;;;4.40;2.85;;;;;;;7.85;69.92;97731.84;1225702;75;2907901;-71
2024/03/19 00:34:27;;;;;;;3.20;2.15;;;;;;;7.86;69.00;97725.97;1225190;75;2913046;-69
2024/03/19 00:37:01;;;;;;;3.10;2.10;;;;;;;7.86;69.17;97722.47;1225756;75;2923095;-69
2024/03/19 00:39:34;;;;;;;3.45;2.40;;;;;;;7.81;69.10;97734.72;1223380;75;3086236;-69
2024/03/19 00:42:07;;;;;;;4.00;2.45;;;;;;;7.86;68.51;97725.97;1225702;75;2910796;-71
2024/03/19 00:44:43;;;;;;;4.60;2.25;;;;;;;7.78;69.06;97727.47;1225208;75;2921722;-68
2024/03/19 00:47:14;;;;;;;3.90;2.45;;;;;;;7.77;68.47;97730.63;1226300;75;2913181;-70
2024/03/19 00:49:47;;;;;;;3.30;2.25;;;;;;;7.69;68.61;97730.94;1226130;75;2899229;-70
2024/03/19 00:52:20;;;;;;;5.50;3.00;;;;;;;7.46;68.64;97729.56;1225576;75;2920640;-71
2024/03/19 00:54:53;;;;;;;4.70;2.85;;;;;;;7.63;67.88;97730.03;1224832;75;2925448;-70
2024/03/19 00:57:26;;;;;;;3.40;2.60;;;;;;;7.60;68.23;97739.13;1225579;75;2932432;-69
2024/03/19 01:00:08;;;;;;;3.50;2.55;;;;;;;7.57;67.45;97728.38;1225570;75;2953745;-69
2024/03/19 01:02:41;;;;;;;3.70;2.60;;;;;;;7.47;68.46;97731.06;1225014;75;2919414;-69
2024/03/19 01:05:15;;;;;;;4.50;2.80;;;;;;;7.43;67.58;97729.72;1226932;75;2915392;-69
2024/03/19 01:07:48;;;;;;;3.95;2.75;;;;;;;7.46;67.56;97731.56;1225892;75;2922781;-69
2024/03/19 01:10:21;;;;;;;3.65;2.40;;;;;;;7.43;67.51;97727.75;1225718;75;2922285;-70
2024/03/19 01:12:53;;;;;;;3.30;2.40;;;;;;;7.49;67.28;97729.88;1226035;75;2907251;-69
2024/03/19 01:15:29;;;;;;;3.80;2.30;;;;;;;7.41;67.18;97724.72;1226044;75;2915902;-68
2024/03/19 01:18:02;;;;;;;3.45;2.10;;;;;;;7.45;67.21;97722.59;1225367;75;2928060;-70
2024/03/19 01:20:35;;;;;;;2.65;1.75;;;;;;;7.40;67.28;97725.94;1225222;75;2915983;-69
2024/03/19 01:23:08;;;;;;;4.25;2.55;;;;;;;7.38;66.67;97727.59;1225761;75;2915390;-70
2024/03/19 01:25:41;;;;;;;5.10;2.80;;;;;;;7.13;66.61;97725.91;1226037;75;2928453;-70
2024/03/19 01:28:14;;;;;;;5.45;3.10;;;;;;;7.18;66.42;97726.03;1224547;75;2915908;-71
2024/03/19 01:30:50;;;;;;;3.95;2.80;;;;;;;7.19;66.35;97734.97;1225430;75;2916511;-69
2024/03/19 01:33:24;;;;;;;3.45;2.65;;;;;;;7.23;66.47;97721.97;1225025;75;2921111;-69
2024/03/19 01:35:57;;;;;;;3.30;2.30;;;;;;;7.27;66.71;97721.84;1225421;75;2919951;-68
2024/03/19 01:38:29;;;;;;;1.90;1.70;;;;;;;7.21;66.36;97727.09;1225291;75;2911133;-69
2024/03/19 01:41:03;;;;;;;2.70;1.95;;;;;;;7.23;66.28;97724.69;1224725;75;2917366;-69
2024/03/19 01:43:36;;;;;;;2.95;1.90;;;;;;;7.18;66.88;97730.75;1225253;75;2915817;-69
2024/03/19 01:46:29;;;;;;;2.90;1.80;;;;;;;7.12;67.19;97738.75;1225267;75;2916676;-69
2024/03/19 01:49:03;;;;;;;2.45;1.85;;;;;;;7.21;66.69;97722.41;1226181;75;2917102;-68
2024/03/19 01:51:36;;;;;;;3.55;2.40;;;;;;;7.11;66.77;97722.84;1225933;75;2914564;-70
2024/03/19 01:54:09;;;;;;;2.55;2.05;;;;;;;7.15;66.93;97721.50;1224035;75;2923466;-68
2024/03/19 01:56:43;;;;;;;3.15;2.00;;;;;;;7.10;66.06;97726.81;1226059;75;2917134;-70
2024/03/19 01:59:16;;;;;;;2.25;1.70;;;;;;;7.10;66.54;97733.00;1222071;75;3087088;-70
2024/03/19 02:01:51;;;;;;;2.50;1.90;;;;;;;7.14;66.22;97728.16;1225052;75;2917186;-69
2024/03/19 02:04:24;;;;;;;2.25;1.75;;;;;;;7.20;66.51;97726.34;1225652;75;2933267;-71
2024/03/19 02:06:57;;;;;;;2.85;1.80;;;;;;;7.16;67.25;97720.28;1225634;75;2918329;-69
2024/03/19 02:09:30;;;;;;;3.40;1.75;;;;;;;7.07;66.83;97725.75;1225994;75;2911645;-69
2024/03/19 02:12:06;;;;;;;3.65;2.00;;;;;;;7.11;66.19;97723.59;1225863;75;2920518;-69
2024/03/19 02:14:39;;;;;;;3.80;2.40;;;;;;;6.98;66.73;97723.00;1224585;75;2929777;-72
2024/03/19 02:17:14;;;;;;;3.00;2.10;;;;;;;7.00;67.06;97726.78;1225643;75;2911899;-69
2024/03/19 02:19:48;;;;;;;3.10;1.95;;;;;;;7.10;67.24;97729.53;1225283;75;2915633;-68
2024/03/19 02:22:21;;;;;;;2.25;1.55;;;;;;;7.09;67.50;97730.72;1224950;75;2918872;-69
2024/03/19 02:24:57;;;;;;;2.70;2.00;;;;;;;7.06;66.86;97726.94;1225644;75;2921991;-72
2024/03/19 02:27:30;;;;;;;2.40;1.70;;;;;;;7.01;66.88;97731.00;1224984;75;2919973;-70
2024/03/19 02:30:03;;;;;;;3.50;1.85;;;;;;;6.88;67.58;97727.66;1224200;75;2919904;-67
2024/03/19 02:32:36;;;;;;;7.80;4.15;;;;;;;6.45;68.03;97726.56;1226000;75;2917068;-70
2024/03/19 02:35:10;;;;;;;4.70;3.00;;;;;;;6.83;67.84;97737.16;1224882;75;2921282;-69
2024/03/19 02:37:43;;;;;;;3.20;2.10;;;;;;;6.87;67.25;97730.81;1225333;75;2925832;-69
2024/03/19 02:40:18;;;;;;;5.75;3.60;;;;;;;6.56;67.97;97734.31;1225305;75;2918791;-70
2024/03/19 02:42:51;;;;;;;4.65;3.25;;;;;;;6.50;68.70;97731.41;1225731;75;2923810;-70
2024/03/19 02:45:25;;;;;;;6.10;3.25;;;;;;;6.64;68.19;97724.69;1226066;75;2916929;-70
2024/03/19 02:47:58;;;;;;;5.35;3.80;;;;;;;6.31;69.63;97730.56;1224960;75;2914266;-69
2024/03/19 02:50:30;;;;;;;5.35;3.25;;;;;;;6.48;69.54;97724.91;1225215;75;2921113;-68
2024/03/19 02:53:03;;;;;;;6.05;3.75;;;;;;;6.27;69.38;97732.66;1225213;75;2921803;-68
2024/03/19 02:55:39;;;;;;;5.85;3.85;;;;;;;6.42;69.40;97734.84;1223758;67;2924984;-71
2024/03/19 02:58:12;;;;;;;4.90;3.80;;;;;;;6.25;70.65;97740.47;1225327;75;2919161;-70
2024/03/19 03:00:44;;;;;;;5.90;3.80;;;;;;;6.39;69.71;97736.50;1225272;75;2913390;-70
2024/03/19 03:03:17;;;;;;;6.85;3.95;;;;;;;6.27;69.89;97740.81;1225505;75;2912192;-71
2024/03/19 03:05:51;;;;;;;5.45;3.90;;;;;;;6.10;70.63;97745.69;1225258;67;2916739;-71
2024/03/19 03:08:24;;;;;;;6.80;3.70;;;;;;;6.19;70.74;97756.63;1223758;75;2963860;-70
2024/03/19 03:10:59;;;;;;;6.45;4.10;;;;;;;6.29;70.71;97753.97;1225174;75;2926010;-70
2024/03/19 03:13:32;;;;;;;4.95;3.20;;;;;;;6.45;71.40;97753.75;1225611;75;2918685;-69
2024/03/19 03:16:05;;;;;;;4.50;3.50;;;;;;;6.33;71.16;97755.34;1224538;75;2922225;-71
2024/03/19 03:18:37;;;;;;;5.20;3.90;;;;;;;6.29;70.91;97760.16;1225652;75;2915237;-70
2024/03/19 03:21:11;;;;;;;6.25;4.30;;;;;;;6.06;70.26;97758.66;1223601;75;2920107;-69
2024/03/19 03:23:44;;;;;;;6.60;4.05;;;;;;;6.23;70.88;97764.66;1224611;75;2916644;-68
2024/03/19 03:26:19;;;;;;;6.85;4.30;;;;;;;6.05;70.32;97767.25;1224822;75;2919440;-69
2024/03/19 03:28:52;;;;;;;7.40;3.95;;;;;;;6.12;71.22;97769.72;1222792;75;3075239;-68
2024/03/19 03:31:27;;;;;;;6.85;5.10;;;;;;;5.84;71.22;97777.63;1225658;75;2909923;-68
2024/03/19 03:33:59;;;;;;;9.05;4.95;;;;;;;5.86;71.19;97771.75;1224207;75;2920346;-71
2024/03/19 03:36:32;;;;;;;7.00;4.70;;;;;;;5.91;71.33;97782.06;1225802;75;2911288;-69
2024/03/19 03:39:07;;;;;;;5.25;4.10;;;;;;;6.03;70.76;97775.81;1225946;75;2911530;-68
2024/03/19 03:41:42;;;;;;;7.90;4.40;;;;;;;5.79;71.20;97783.59;1224672;75;2923207;-70
2024/03/19 03:44:17;;;;;;;4.90;3.55;;;;;;;5.95;70.67;97790.88;1224441;75;2926357;-69
2024/03/19 03:46:50;;;;;;;5.95;4.30;;;;;;;5.84;70.91;97799.34;1225773;75;2886715;-69
2024/03/19 03:49:23;;;;;;;5.80;4.50;;;;;;;5.64;71.01;97790.72;1223527;75;2960697;-68
2024/03/19 03:51:56;;;;;;;6.80;5.25;;;;;;;5.59;71.32;97792.03;1225975;75;2909837;-69
2024/03/19 03:54:29;;;;;;;7.95;5.45;;;;;;;5.59;71.55;97797.47;1225297;75;2915357;-70
2024/03/19 03:57:05;;;;;;;9.45;5.70;;;;;;;5.39;71.22;97789.59;1225041;75;2920717;-71
2024/03/19 03:59:38;;;;;;;6.80;4.90;;;;;;;5.57;71.37;97799.88;1224426;75;2920316;-68
2024/03/19 04:02:10;;;;;;;8.10;5.55;;;;;;;5.47;71.57;97796.31;1224386;75;2914889;-70
2024/03/19 04:04:43;;;;;;;8.55;5.45;;;;;;;5.43;71.72;97797.63;1224441;75;2929679;-68
2024/03/19 04:07:16;;;;;;;7.20;5.00;;;;;;;5.40;72.00;97796.53;1224602;75;2919192;-68
2024/03/19 04:09:49;;;;;;;10.15;5.15;;;;;;;5.32;71.30;97811.53;1224012;75;2923281;-68
2024/03/19 04:12:24;;;;;;;9.00;5.45;;;;;;;5.22;71.52;97807.19;1224286;75;2918157;-68
2024/03/19 04:14:57;;;;;;;7.75;5.55;;;;;;;5.28;71.19;97817.06;1224107;75;2917897;-69
2024/03/19 04:17:31;;;;;;;6.30;4.50;;;;;;;5.48;70.86;97813.34;1224277;75;2918216;-68
2024/03/19 04:20:05;;;;;;;7.00;5.25;;;;;;;5.31;71.66;97832.47;1225052;75;2922069;-69
2024/03/19 04:22:38;;;;;;;7.55;5.75;;;;;;;5.34;71.39;97826.19;1224332;67;2916358;-68
2024/03/19 04:25:13;;;;;;;6.65;5.05;;;;;;;5.41;71.85;97827.16;1224073;75;2927171;-69
2024/03/19 04:27:49;;;;;;;4.95;3.90;;;;;;;5.53;71.08;97824.44;1225240;75;2923907;-67
2024/03/19 04:30:21;;;;;;;5.60;3.90;;;;;;;5.70;70.60;97819.63;1224681;75;2929685;-69
2024/03/19 04:32:54;;;;;;;6.80;4.45;;;;;;;5.46;70.83;97821.16;1224689;75;2920668;-66
2024/03/19 04:35:27;;;;;;;6.75;5.25;;;;;;;5.34;71.04;97837.06;1224690;75;2917019;-69
2024/03/19 04:38:01;;;;;;;6.25;5.05;;;;;;;5.44;70.91;97839.88;1223807;83;2939541;-69
2024/03/19 04:40:34;;;;;;;7.00;5.60;;;;;;;5.33;70.90;97832.81;1224774;75;2929393;-70
2024/03/19 04:43:09;;;;;;;6.15;4.90;;;;;;;5.37;71.27;97830.00;1224534;75;2924669;-69
2024/03/19 04:45:42;;;;;;;7.05;5.00;;;;;;;5.39;71.53;97837.69;1223968;75;2925706;-67
2024/03/19 04:48:15;;;;;;;5.75;4.55;;;;;;;5.55;70.72;97832.13;1224457;75;2918632;-68
2024/03/19 04:50:47;;;;;;;8.35;5.65;;;;;;;5.26;72.06;97843.88;1224925;75;2919567;-69
2024/03/19 04:53:20;;;;;;;8.30;5.95;;;;;;;5.18;71.97;97845.31;1223953;75;2925668;-68
2024/03/19 04:55:53;;;;;;;6.85;5.80;;;;;;;5.12;72.51;97849.75;1224330;75;2919478;-67
2024/03/19 04:58:29;;;;;;;10.10;6.05;;;;;;;5.09;72.57;97850.63;1224514;75;2924575;-69
2024/03/19 05:01:02;;;;;;;8.55;6.00;;;;;;;5.25;72.45;97857.91;1223383;75;2928132;-70
2024/03/19 05:03:35;;;;;;;6.40;5.50;;;;;;;5.22;72.52;97856.81;1224135;75;2931764;-68
2024/03/19 05:06:08;;;;;;;6.35;5.40;;;;;;;5.09;73.45;97864.19;1224310;75;2932634;-69
2024/03/19 05:08:42;;;;;;;7.60;6.15;;;;;;;5.13;73.83;97873.75;1223529;75;2930173;-70
2024/03/19 05:11:15;;;;;;;7.30;5.90;;;;;;;5.12;73.09;97874.94;1224052;75;2921099;-70
2024/03/19 05:13:51;;;;;;;6.90;5.45;;;;;;;5.24;73.23;97883.50;1223512;75;2919781;-69
2024/03/19 05:16:24;;;;;;;7.65;6.10;;;;;;;5.36;72.91;97884.72;1223724;75;2924626;-72
2024/03/19 05:18:56;;;;;;;6.25;5.40;;;;;;;5.32;72.85;97882.13;1223804;75;2923309;-69
2024/03/19 05:21:29;;;;;;;7.45;6.00;;;;;;;5.26;73.13;97884.59;1223304;75;2926523;-68
2024/03/19 05:24:02;;;;;;;12.50;7.30;;;;;;;5.27;72.83;97891.56;1222989;75;2963324;-67
2024/03/19 05:26:35;;;;;;;9.20;6.80;;;;;;;5.09;73.31;97891.31;1224137;75;2920772;-68
2024/03/19 05:29:11;;;;;;;8.60;6.95;;;;;;;5.03;72.78;97893.06;1223307;75;2926856;-69
2024/03/19 05:31:44;;;;;;;9.90;6.20;;;;;;;5.09;74.15;97894.78;1221989;75;2930772;-68
2024/03/19 05:34:17;;;;;;;8.40;6.40;;;;;;;5.23;73.73;97898.28;1223502;75;2926595;-68
2024/03/19 05:36:50;;;;;;;8.55;6.40;;;;;;;5.25;73.25;97904.81;1198992;75;4876021;-67
2024/03/19 05:39:24;;;;;;;11.35;8.30;;;;;;;5.09;73.84;97910.31;1224001;75;2955451;-68
2024/03/19 05:41:57;;;;;;;8.25;6.90;;;;;;;4.91;73.38;97919.72;1224059;75;2933006;-69
2024/03/19 05:44:32;;;;;;;9.25;7.00;;;;;;;5.12;73.03;97928.44;1223806;75;2930843;-68
2024/03/19 05:47:05;;;;;;;7.50;5.75;;;;;;;5.33;72.60;97921.63;1223443;75;2916810;-67
2024/03/19 05:49:38;;;;;;;6.45;4.35;;;;;;;5.55;72.57;97922.50;1224456;75;2924324;-70
2024/03/19 05:52:11;;;;;;;10.55;8.40;;;;;;;5.52;71.50;97928.03;1223574;75;2924136;-67
2024/03/19 05:54:44;;;;;;;9.20;7.20;;;;;;;5.53;69.99;97924.91;1222280;75;2962069;-67
2024/03/19 05:57:17;;;;;;;7.80;5.35;;;;;;;5.47;69.99;97934.78;1224597;75;2927655;-68
2024/03/19 05:59:53;;;;;;;5.80;4.85;;;;;;;5.22;69.67;97934.75;1223212;75;2925812;-69
2024/03/19 06:02:26;;;;;;;6.60;5.35;;;;;;;5.05;68.36;97937.56;1224678;75;2939154;-69
2024/03/19 06:04:59;;;;;;;6.75;5.70;;;;;;;5.21;68.54;97941.38;1224397;75;2924434;-69
2024/03/19 06:07:31;;;;;;;6.65;4.80;;;;;;;5.18;68.60;97945.72;1224476;75;2924162;-68
2024/03/19 06:10:04;;;;;;;5.55;4.35;;;;;;;5.08;68.71;97952.22;1224507;75;2922344;-68
2024/03/19 06:12:37;;;;;;;6.05;3.85;;;;;;;5.38;68.57;97945.53;1224606;75;2922223;-67
2024/03/19 06:15:14;;;;;;;3.70;2.80;;;;;;;5.58;67.85;97942.63;1224451;75;2926533;-69
2024/03/19 06:17:47;;;;;;;3.85;3.25;;;;;;;5.47;66.81;97956.50;1224017;75;2927334;-69
2024/03/19 06:20:20;;;;;;;3.90;3.35;;;;;;;5.65;66.78;97949.75;1223951;75;2933310;-71
2024/03/19 06:22:53;;;;;;;3.65;3.15;;;;;;;5.67;67.57;97952.81;1224197;75;2926034;-69
2024/03/19 06:25:26;;;;;;;4.50;3.35;;;;;;;5.69;67.42;97953.88;1224176;75;2926852;-69
2024/03/19 06:27:59;;;;;;;7.10;5.10;;;;;;;5.12;66.04;97967.22;1223965;75;2913415;-68
2024/03/19 06:30:37;;;;;;;7.60;5.90;;;;;;;5.04;66.27;97973.25;1222292;75;3098622;-68
2024/03/19 06:33:09;;;;;;;11.60;8.10;;;;;;;5.26;66.98;97974.16;1225071;75;2926160;-68
2024/03/19 06:35:48;;;;;;;7.35;5.90;;;;;;;5.45;66.77;97985.28;1222791;75;2931756;-70
2024/03/19 06:38:22;;;;;;;7.90;6.50;;;;;;;5.18;66.46;97988.38;1133547;75;5748886;-72
2024/03/19 06:40:55;;;;;;;5.80;4.90;;;;;;;5.27;66.42;97989.28;1136665;75;5938503;-70
2024/03/19 06:43:28;;;;;;;7.25;4.75;;;;;;;5.31;67.10;97984.47;1158486;75;8048868;-67
2024/03/19 06:46:03;;;;;;;5.20;4.25;;;;;;;5.47;66.23;97980.94;1223355;75;2901759;-72
2024/03/19 06:48:38;;;;;;;4.10;3.45;;;;;;;5.65;66.76;97982.34;1224272;75;2924055;-69
2024/03/19 06:51:11;;;;;;;2.80;2.50;;;;;;;5.82;65.39;97978.34;1223345;75;2950269;-68
2024/03/19 06:53:46;;;;;;;5.05;3.65;;;;;;;5.59;65.70;97981.38;1216886;75;2924221;-69
2024/03/19 06:56:19;;;;;;;6.30;3.35;;;;;;;5.74;65.98;97983.22;1223203;75;2923702;-69
2024/03/19 06:58:52;;;;;;;5.15;3.70;;;;;;;5.81;64.75;97989.66;1221812;75;2978704;-67
2024/03/19 07:01:31;;;;;;;6.05;4.30;;;;;;;5.60;64.49;97991.03;1220730;75;2923174;-67
2024/03/19 07:04:05;;;;;;;5.15;3.70;;;;;;;5.89;65.32;97991.72;1220793;75;2948562;-68
2024/03/19 07:06:42;;;;;;;6.85;4.90;;;;;;;5.53;65.27;97986.56;1223966;75;2918520;-67
2024/03/19 07:09:17;;;;;;;6.20;4.95;;;;;;;5.65;64.62;97995.94;1223741;75;2919358;-71
2024/03/19 07:11:50;;;;;;;6.05;4.20;;;;;;;5.94;64.29;97996.63;1223383;75;2935027;-68
2024/03/19 07:14:23;;;;;;;5.60;3.55;;;;;;;6.10;63.21;98003.13;1223497;75;2922787;-68
2024/03/19 07:16:59;;;;;;;5.65;4.60;;;;;;;5.73;63.61;98010.84;1219811;75;3117481;-70
2024/03/19 07:19:32;;;;;;;5.05;3.95;;;;;;;5.90;64.30;98014.22;1222828;75;2915186;-68
2024/03/19 07:22:05;;;;;;;4.15;3.75;;;;;;;6.01;64.17;98016.63;1220612;75;2919835;-69
2024/03/19 07:24:38;;;;;;;4.00;3.35;;;;;;;6.29;63.82;98025.84;1223541;75;2923165;-70
2024/03/19 07:27:11;;;;;;;4.50;3.45;;;;;;;6.25;63.66;98027.91;1223886;75;2923903;-70
2024/03/19 07:29:44;;;;;;;4.70;2.95;;;;;;;6.39;62.33;98030.91;1224583;75;2917571;-69
2024/03/19 07:32:19;;;;;;;3.80;3.10;;;;;;;6.43;62.55;98036.25;1223976;75;2916568;-70
2024/03/19 07:34:52;;;;;;;4.45;2.90;;;;;;;6.64;61.96;98036.72;1223534;75;2919699;-71
2024/03/19 07:37:25;;;;;;;5.60;3.75;;;;;;;6.25;62.25;98046.94;1223812;75;2914040;-67
2024/03/19 07:39:59;;;;;;;9.95;5.20;;;;;;;5.95;63.41;98038.91;1220258;75;3190458;-69
2024/03/19 07:42:32;;;;;;;7.75;5.45;;;;;;;5.80;63.83;98045.94;1224407;75;2924015;-70
2024/03/19 07:45:05;;;;;;;5.60;4.60;;;;;;;6.20;62.53;98045.50;1224358;75;2917697;-70
2024/03/19 07:47:40;;;;;;;4.40;3.35;;;;;;;6.67;62.63;98050.22;1225013;75;2918656;-68
2024/03/19 07:50:18;;;;;;;3.85;3.05;;;;;;;6.96;61.68;98046.56;1222751;83;2928573;-68
2024/03/19 07:52:51;;;;;;;5.35;3.80;;;;;;;6.78;61.61;98044.41;1224381;75;2921415;-68
2024/03/19 07:55:23;;;;;;;3.80;2.80;;;;;;;7.20;61.16;98044.16;1224240;75;2918812;-71
2024/03/19 07:57:56;;;;;;;3.55;2.95;;;;;;;7.20;60.82;98036.00;1223441;75;2919546;-69
2024/03/19 08:00:29;;;;;;;4.50;3.30;;;;;;;7.22;61.04;98053.41;1223905;75;2925045;-69
2024/03/19 08:03:05;;;;;;;5.20;4.25;;;;;;;6.95;61.52;98050.47;1223214;75;2927901;-72
2024/03/19 08:05:38;;;;;;;7.40;4.95;;;;;;;6.24;62.28;98048.88;1221843;75;2917022;-69
2024/03/19 08:08:11;;;;;;;6.20;3.95;;;;;;;7.15;61.58;98059.09;1224266;75;2925370;-68
2024/03/19 08:10:44;;;;;;;5.15;3.90;;;;;;;7.32;60.39;98059.69;1224534;75;2920050;-69
2024/03/19 08:13:16;;;;;;;6.40;3.70;;;;;;;7.90;59.92;98052.88;1224811;75;2916509;-68
2024/03/19 08:15:49;;;;;;;3.95;3.45;;;;;;;7.77;58.60;98049.47;1221194;75;2925939;-70
2024/03/19 08:18:25;;;;;;;4.00;3.15;;;;;;;8.06;58.67;98052.66;1224062;75;2921955;-69
2024/03/19 08:20:57;;;;;;;3.60;2.95;;;;;;;8.59;57.10;98049.03;1222510;75;2923531;-68
2024/03/19 08:23:30;;;;;;;6.05;4.40;;;;;;;7.47;60.24;98054.47;1222875;75;2933940;-70
2024/03/19 08:26:03;;;;;;;4.40;3.40;;;;;;;8.09;57.95;98053.72;1223909;75;2918822;-68
2024/03/19 08:28:36;;;;;;;4.00;2.75;;;;;;;8.54;58.85;98049.66;1223939;75;2925618;-70
2024/03/19 08:31:09;;;;;;;4.45;3.15;;;;;;;8.56;58.37;98057.34;1223655;75;2925534;-69
2024/03/19 08:33:44;;;;;;;4.30;3.25;;;;;;;8.47;58.16;98072.50;1223226;75;2921849;-68
2024/03/19 08:36:17;;;;;;;5.55;3.80;;;;;;;8.46;59.75;98064.78;1223324;75;2919676;-68
2024/03/19 08:38:50;;;;;;;4.35;3.55;;;;;;;9.31;58.01;98059.69;1222915;75;2931220;-71
2024/03/19 08:41:23;;;;;;;4.30;3.20;;;;;;;10.28;54.69;98064.28;1224046;75;2923601;-68
2024/03/19 08:43:56;;;;;;;5.45;3.00;;;;;;;10.51;53.54;98062.81;1223903;75;2921609;-68
2024/03/19 08:46:29;;;;;;;4.70;2.90;;;;;;;11.00;53.05;98053.34;1223286;75;2925244;-70
2024/03/19 08:49:05;;;;;;;5.80;4.20;;;;;;;10.29;52.96;98057.59;1223371;75;2905871;-69
2024/03/19 08:51:37;;;;;;;8.55;4.90;;;;;;;8.83;55.31;98054.69;1223258;75;2921537;-69
2024/03/19 08:54:10;;;;;;;7.50;4.80;;;;;;;9.59;54.64;98052.94;1221650;75;2923893;-67
2024/03/19 08:56:43;;;;;;;6.85;4.40;;;;;;;9.23;55.02;98061.94;1223339;75;2929992;-67
2024/03/19 08:59:17;;;;;;;4.80;3.65;;;;;;;10.26;54.31;98065.94;1223502;75;2923757;-69
2024/03/19 09:01:50;;;;;;;5.15;3.65;;;;;;;10.11;54.13;98069.34;1222938;75;2945057;-69
2024/03/19 09:04:25;;;;;;;6.60;4.10;;;;;;;10.40;53.45;98077.00;1223170;75;2934771;-68
2024/03/19 09:06:58;;;;;;;5.30;3.60;;;;;;;10.39;54.25;98072.75;1221308;75;2924126;-70
2024/03/19 09:09:31;;;;;;;6.60;4.95;;;;;;;9.34;55.82;98070.44;1223894;75;2926457;-71
2024/03/19 09:12:04;;;;;;;7.80;5.30;;;;;;;8.84;55.75;98067.09;1222340;75;2926774;-70
2024/03/19 09:14:37;;;;;;;6.75;4.70;;;;;;;9.53;55.63;98071.19;1222309;75;2923841;-71
2024/03/19 09:17:11;;;;;;;7.25;4.85;;;;;;;8.90;57.00;98070.00;1222454;75;2932251;-68
2024/03/19 09:19:46;;;;;;;5.25;3.45;;;;;;;9.92;54.63;98079.59;1224114;75;2930088;-66
2024/03/19 09:22:19;;;;;;;6.75;5.20;;;;;;;8.41;57.39;98082.50;1222583;75;2945082;-70
2024/03/19 09:24:52;;;;;;;8.85;5.55;;;;;;;8.39;58.69;98081.41;1221439;75;2928384;-71
2024/03/19 09:27:25;;;;;;;6.35;4.30;;;;;;;9.25;57.28;98078.66;1221926;75;2923595;-68
2024/03/19 09:29:58;;;;;;;5.05;3.10;;;;;;;9.42;55.57;98079.09;1223733;75;2917505;-71
2024/03/19 09:32:31;;;;;;;7.15;4.95;;;;;;;8.50;58.22;98077.06;1220232;75;3048479;-68
2024/03/19 09:35:08;;;;;;;6.80;4.30;;;;;;;9.58;57.06;98086.22;1224174;75;2927967;-69
2024/03/19 09:37:41;;;;;;;5.00;3.15;;;;;;;9.89;57.07;98074.31;1223333;75;2933166;-67
2024/03/19 09:40:15;;;;;;;6.20;4.70;;;;;;;9.03;57.57;98076.06;1222295;75;2947143;-70
2024/03/19 09:42:48;;;;;;;9.75;5.70;;;;;;;8.25;59.61;98080.75;1222527;75;2938860;-67
2024/03/19 09:45:31;;;;;;;8.15;5.55;;;;;;;7.74;61.11;98080.34;1223546;75;2923963;-68
2024/03/19 09:48:04;;;;;;;9.45;5.95;;;;;;;7.90;61.68;98078.19;1223993;75;2919111;-69
2024/03/19 09:50:41;;;;;;;8.40;5.85;;;;;;;7.80;61.34;98078.59;1223538;75;2917990;-71
2024/03/19 09:53:24;;;;;;;10.30;5.90;;;;;;;7.42;61.84;98079.56;1221672;75;2918930;-67
2024/03/19 09:55:57;;;;;;;8.50;5.45;;;;;;;7.91;60.77;98081.66;1222227;75;2924880;-71
2024/03/19 09:58:31;;;;;;;8.20;5.20;;;;;;;8.21;61.01;98088.31;1223557;75;2923864;-71
2024/03/19 10:01:05;;;;;;;5.40;4.45;;;;;;;8.49;61.84;98074.78;1222881;75;2934565;-68
2024/03/19 10:03:38;;;;;;;7.85;5.30;;;;;;;8.44;61.69;98083.56;1222236;75;2927957;-69
2024/03/19 10:06:18;;;;;;;8.85;5.40;;;;;;;8.55;61.16;98086.63;1222816;75;2921221;-70
2024/03/19 10:08:52;;;;;;;8.95;6.00;;;;;;;8.04;62.30;98076.13;1223628;75;2929271;-70
2024/03/19 10:11:26;;;;;;;6.85;4.20;;;;;;;8.95;59.83;98083.06;1222468;75;2924523;-70
2024/03/19 10:13:59;;;;;;;6.70;4.00;;;;;;;9.67;59.56;98078.00;1222913;75;2918033;-68
2024/03/19 10:16:32;;;;;;;4.80;3.45;;;;;;;10.12;58.77;98073.59;1223681;75;2926467;-68
2024/03/19 10:19:05;;;;;;;7.55;5.60;;;;;;;9.24;59.15;98076.41;1223679;75;2916112;-71
2024/03/19 10:21:41;;;;;;;8.15;5.95;;;;;;;9.00;59.96;98076.25;1222704;75;2924903;-71
2024/03/19 10:24:18;;;;;;;5.95;4.45;;;;;;;9.27;59.31;98075.47;1223332;75;2923270;-68
2024/03/19 10:26:51;;;;;;;6.05;4.65;;;;;;;10.01;58.14;98071.38;1222755;75;2946214;-68
2024/03/19 10:29:24;;;;;;;9.80;5.50;;;;;;;9.45;58.16;98069.97;1223861;75;2922390;-69
2024/03/19 10:31:58;;;;;;;7.70;5.45;;;;;;;9.56;59.13;98067.53;1224212;75;2941728;-68
2024/03/19 10:34:31;;;;;;;5.95;4.50;;;;;;;9.99;58.05;98067.59;1223102;75;2948547;-68
2024/03/19 10:37:07;;;;;;;7.10;4.50;;;;;;;10.29;57.46;98065.78;1223864;75;2920320;-65
2024/03/19 10:39:41;;;;;;;6.75;5.65;;;;;;;10.39;57.30;98063.78;1223012;75;2942870;-68
2024/03/19 10:42:16;;;;;;;4.65;3.75;;;;;;;11.25;55.04;98065.00;1223276;75;2914321;-67
2024/03/19 10:44:49;;;;;;;5.60;4.50;;;;;;;11.35;55.21;98057.47;1223795;75;2959895;-68
2024/03/19 10:47:23;;;;;;;7.55;4.85;;;;;;;11.05;55.36;98060.91;1224738;75;2928041;-66
2024/03/19 10:49:56;;;;;;;6.75;5.00;;;;;;;9.97;56.99;98061.81;1224498;75;2947721;-67
2024/03/19 10:52:32;;;;;;;7.85;6.10;;;;;;;10.33;57.08;98058.19;1223831;75;2931020;-69
2024/03/19 10:55:05;;;;;;;8.90;5.20;;;;;;;10.53;55.75;98059.59;1225127;75;2922927;-65
2024/03/19 10:57:38;;;;;;;6.75;5.15;;;;;;;11.07;55.39;98054.97;1223858;75;2926735;-67
2024/03/19 11:00:26;;;;;;;7.35;5.30;;;;;;;11.04;55.23;98050.41;1223812;75;2923273;-70
2024/03/19 11:03:02;;;;;;;6.90;5.20;;;;;;;12.19;54.37;98044.38;1224049;75;2919503;-69
2024/03/19 11:05:37;;;;;;;6.35;4.55;;;;;;;13.46;51.04;98048.44;1224505;75;2918048;-64
2024/03/19 11:08:16;;;;;;;6.85;5.10;;;;;;;12.95;50.07;98047.13;1223218;75;2922708;-69
2024/03/19 11:10:49;;;;;;;5.40;4.35;;;;;;;12.90;51.56;98047.81;1224599;75;2924245;-66
2024/03/19 11:13:25;;;;;;;5.45;3.70;;;;;;;13.73;49.61;98041.66;1223755;75;2920345;-68
2024/03/19 11:15:58;;;;;;;11.00;6.80;;;;;;;13.87;49.03;98048.28;1223803;75;2938135;-66
2024/03/19 11:18:34;;;;;;;8.45;5.85;;;;;;;12.46;51.00;98052.28;1224449;75;2933201;-69
2024/03/19 11:21:07;;;;;;;6.65;4.80;;;;;;;13.41;49.84;98043.66;1120147;75;8834668;-70
2024/03/19 11:23:48;;;;;;;7.45;5.60;;;;;;;12.60;50.64;98044.44;1224415;75;2934079;-69
2024/03/19 11:26:21;;;;;;;5.30;3.90;;;;;;;14.76;48.54;98035.59;1224078;75;2924570;-70
2024/03/19 11:29:03;;;;;;;7.00;4.90;;;;;;;12.47;50.90;98048.28;1136640;75;8396661;-69
2024/03/19 11:31:45;;;;;;;7.20;5.10;;;;;;;12.73;52.09;98042.13;1225078;75;2931935;-69
2024/03/19 11:34:19;;;;;;;9.70;5.85;;;;;;;12.12;52.16;98046.31;1223840;75;2930414;-69
2024/03/19 11:36:52;;;;;;;5.25;4.15;;;;;;;13.57;49.81;98045.81;1224876;75;2926326;-69
2024/03/19 11:39:28;;;;;;;8.15;4.90;;;;;;;13.09;50.73;98051.78;1224540;75;2897662;-68
2024/03/19 11:42:00;;;;;;;7.20;4.70;;;;;;;13.38;51.35;98039.88;1224326;75;2943173;-65
2024/03/19 11:44:34;;;;;;;7.10;4.95;;;;;;;13.72;48.75;98044.94;1224179;75;2936724;-67
2024/03/19 11:47:08;;;;;;;8.70;4.55;;;;;;;14.22;47.21;98039.06;1225188;75;2922559;-67
2024/03/19 11:49:41;;;;;;;6.00;4.40;;;;;;;15.93;46.97;98039.84;1223970;75;2924152;-66
2024/03/19 11:52:14;;;;;;;10.35;5.60;;;;;;;13.97;48.73;98035.09;1223523;75;2916120;-66
2024/03/19 11:54:49;;;;;;;6.55;4.75;;;;;;;13.35;49.72;98035.34;1224644;75;2917402;-69